createdAt,value
2023-04-06T00:00:04.653Z,2.38
2023-04-06T00:01:04.584Z,2.38
2023-04-06T00:02:04.674Z,2.31
2023-04-06T00:03:04.758Z,2.31
2023-04-06T00:04:04.670Z,2.25
2023-04-06T00:05:04.624Z,2.25
2023-04-06T00:06:04.626Z,2.25
2023-04-06T00:07:04.626Z,2.19
2023-04-06T00:08:04.622Z,2.19
2023-04-06T00:09:04.631Z,2.19
2023-04-06T00:10:04.646Z,2.12
2023-04-06T00:11:04.630Z,2.12
2023-04-06T00:12:04.636Z,2.06
2023-04-06T00:13:04.617Z,2.06
2023-04-06T00:14:04.638Z,2.06
2023-04-06T00:15:04.629Z,2.06
2023-04-06T00:16:04.644Z,2.06
2023-04-06T00:17:04.728Z,2.00
2023-04-06T00:18:04.689Z,2.00
2023-04-06T00:19:04.642Z,2.00
2023-04-06T00:20:04.664Z,1.94
2023-04-06T00:21:04.643Z,1.94
2023-04-06T00:22:04.673Z,1.88
2023-04-06T00:23:04.648Z,1.88
2023-04-06T00:24:04.623Z,1.88
2023-04-06T00:25:04.643Z,1.81
2023-04-06T00:26:04.645Z,1.81
2023-04-06T00:27:04.662Z,1.75
2023-04-06T00:28:04.693Z,1.75
2023-04-06T00:29:04.652Z,1.75
2023-04-06T00:30:04.651Z,1.75
2023-04-06T00:31:04.656Z,1.69
2023-04-06T00:32:04.701Z,1.62
2023-04-06T00:33:04.700Z,1.62
2023-04-06T00:34:04.647Z,1.62
2023-04-06T00:35:04.643Z,1.56
2023-04-06T00:36:04.690Z,1.56
2023-04-06T00:37:04.644Z,1.50
2023-04-06T00:38:04.669Z,1.50
2023-04-06T00:39:04.675Z,1.50
2023-04-06T00:40:04.714Z,1.44
2023-04-06T00:41:04.664Z,1.44
2023-04-06T00:42:04.652Z,1.44
2023-04-06T00:43:04.661Z,1.44
2023-04-06T00:44:04.664Z,1.38
2023-04-06T00:45:04.666Z,1.38
2023-04-06T00:46:04.679Z,1.31
2023-04-06T00:47:04.665Z,1.38
2023-04-06T00:48:04.688Z,1.31
2023-04-06T00:49:04.656Z,1.31
2023-04-06T00:50:04.665Z,1.31
2023-04-06T00:51:04.686Z,1.31
2023-04-06T00:52:04.691Z,1.25
2023-04-06T00:53:04.676Z,1.31
2023-04-06T00:54:04.670Z,1.25
2023-04-06T00:55:04.720Z,1.25
2023-04-06T00:56:04.706Z,1.25
2023-04-06T00:57:04.695Z,1.25
2023-04-06T00:58:04.683Z,1.19
2023-04-06T00:59:04.727Z,1.19
2023-04-06T01:00:04.787Z,1.19
2023-04-06T01:01:04.692Z,1.19
2023-04-06T01:02:04.691Z,1.19
2023-04-06T01:03:04.708Z,1.19
2023-04-06T01:04:04.682Z,1.19
2023-04-06T01:05:04.676Z,1.19
2023-04-06T01:06:04.684Z,1.12
2023-04-06T01:07:04.708Z,1.12
2023-04-06T01:08:04.696Z,1.12
2023-04-06T01:09:04.712Z,1.12
2023-04-06T01:10:04.693Z,1.12
2023-04-06T01:11:04.698Z,1.12
2023-04-06T01:12:04.712Z,1.12
2023-04-06T01:13:04.681Z,1.12
2023-04-06T01:14:04.698Z,1.12
2023-04-06T01:15:04.708Z,1.12
2023-04-06T01:16:04.725Z,1.12
2023-04-06T01:17:05.368Z,1.12
2023-04-06T01:18:04.745Z,1.12
2023-04-06T01:19:04.730Z,1.12
2023-04-06T01:20:04.708Z,1.12
2023-04-06T01:21:04.698Z,1.19
2023-04-06T01:22:04.714Z,1.19
2023-04-06T01:23:04.698Z,1.19
2023-04-06T01:24:04.705Z,1.19
2023-04-06T01:25:04.724Z,1.12
2023-04-06T01:26:04.696Z,1.12
2023-04-06T01:27:04.707Z,1.12
2023-04-06T01:28:04.707Z,1.12
2023-04-06T01:29:04.694Z,1.12
2023-04-06T01:30:04.732Z,1.19
2023-04-06T01:31:04.712Z,1.19
2023-04-06T01:32:04.707Z,1.19
2023-04-06T01:33:04.785Z,1.19
2023-04-06T01:34:04.726Z,1.19
2023-04-06T01:35:04.724Z,1.19
2023-04-06T01:36:04.743Z,1.19
2023-04-06T01:37:04.717Z,1.12
2023-04-06T01:38:04.730Z,1.19
2023-04-06T01:39:04.704Z,1.12
2023-04-06T01:40:04.736Z,1.12
2023-04-06T01:41:04.749Z,1.12
2023-04-06T01:42:04.717Z,1.19
2023-04-06T01:43:04.726Z,1.19
2023-04-06T01:44:04.716Z,1.12
2023-04-06T01:45:04.729Z,1.19
2023-04-06T01:46:04.724Z,1.12
2023-04-06T01:47:04.714Z,1.12
2023-04-06T01:48:04.827Z,1.12
2023-04-06T01:49:04.705Z,1.12
2023-04-06T01:50:04.770Z,1.12
2023-04-06T01:51:04.733Z,1.12
2023-04-06T01:52:04.743Z,1.12
2023-04-06T01:53:04.745Z,1.12
2023-04-06T01:54:04.742Z,1.12
2023-04-06T01:55:04.760Z,1.12
2023-04-06T01:56:04.761Z,1.06
2023-04-06T01:57:04.754Z,1.06
2023-04-06T01:58:04.762Z,1.06
2023-04-06T01:59:04.814Z,1.06
2023-04-06T02:00:04.772Z,1.06
2023-04-06T02:01:04.818Z,1.06
2023-04-06T02:02:04.767Z,1.06
2023-04-06T02:03:04.767Z,1.06
2023-04-06T02:04:04.731Z,1.06
2023-04-06T02:05:04.775Z,1.06
2023-04-06T02:06:04.768Z,1.06
2023-04-06T02:07:04.795Z,1.06
2023-04-06T02:08:04.783Z,1.06
2023-04-06T02:09:04.773Z,1.06
2023-04-06T02:10:04.768Z,1.06
2023-04-06T02:11:04.768Z,1.06
2023-04-06T02:12:04.784Z,1.06
2023-04-06T02:13:04.746Z,1.00
2023-04-06T02:14:04.749Z,1.00
2023-04-06T02:15:04.757Z,1.00
2023-04-06T02:16:04.778Z,1.00
2023-04-06T02:17:04.816Z,1.00
2023-04-06T02:18:04.838Z,0.94
2023-04-06T02:19:04.780Z,0.94
2023-04-06T02:20:04.799Z,0.94
2023-04-06T02:21:04.781Z,0.94
2023-04-06T02:22:04.788Z,0.94
2023-04-06T02:23:04.806Z,0.94
2023-04-06T02:24:04.753Z,0.88
2023-04-06T02:25:04.752Z,0.88
2023-04-06T02:26:04.775Z,0.88
2023-04-06T02:27:04.761Z,0.88
2023-04-06T02:28:04.788Z,0.81
2023-04-06T02:29:04.808Z,0.81
2023-04-06T02:30:04.802Z,0.81
2023-04-06T02:31:04.759Z,0.75
2023-04-06T02:32:04.840Z,0.75
2023-04-06T02:33:04.812Z,0.75
2023-04-06T02:34:04.778Z,0.75
2023-04-06T02:35:04.785Z,0.75
2023-04-06T02:36:04.833Z,0.75
2023-04-06T02:37:04.795Z,0.69
2023-04-06T02:38:04.784Z,0.69
2023-04-06T02:39:04.781Z,0.69
2023-04-06T02:40:04.916Z,0.69
2023-04-06T02:41:04.782Z,0.69
2023-04-06T02:42:04.799Z,0.62
2023-04-06T02:43:04.762Z,0.62
2023-04-06T02:44:04.780Z,0.62
2023-04-06T02:45:04.786Z,0.56
2023-04-06T02:46:04.859Z,0.56
2023-04-06T02:47:04.797Z,0.56
2023-04-06T02:48:04.810Z,0.56
2023-04-06T02:49:04.789Z,0.50
2023-04-06T02:50:04.913Z,0.50
2023-04-06T02:51:04.785Z,0.50
2023-04-06T02:52:04.802Z,0.44
2023-04-06T02:53:04.790Z,0.44
2023-04-06T02:54:04.797Z,0.44
2023-04-06T02:55:04.794Z,0.38
2023-04-06T02:56:04.799Z,0.38
2023-04-06T02:57:04.798Z,0.38
2023-04-06T02:58:04.822Z,0.38
2023-04-06T02:59:04.872Z,0.38
2023-04-06T03:00:04.836Z,0.38
2023-04-06T03:01:04.813Z,0.31
2023-04-06T03:02:04.803Z,0.31
2023-04-06T03:03:04.863Z,0.31
2023-04-06T03:04:04.812Z,0.31
2023-04-06T03:05:04.818Z,0.31
2023-04-06T03:06:04.826Z,0.25
2023-04-06T03:07:04.811Z,0.25
2023-04-06T03:08:04.860Z,0.25
2023-04-06T03:09:04.851Z,0.19
2023-04-06T03:10:05.266Z,0.19
2023-04-06T03:11:04.832Z,0.19
2023-04-06T03:12:04.809Z,0.19
2023-04-06T03:13:04.776Z,0.19
2023-04-06T03:14:04.829Z,0.12
2023-04-06T03:15:04.812Z,0.12
2023-04-06T03:16:04.854Z,0.12
2023-04-06T03:17:04.834Z,0.06
2023-04-06T03:18:04.895Z,0.06
2023-04-06T03:19:04.814Z,0.06
2023-04-06T03:20:04.832Z,0.06
2023-04-06T03:21:04.805Z,0.06
2023-04-06T03:22:04.805Z,0.00
2023-04-06T03:23:04.833Z,0.00
2023-04-06T03:24:04.812Z,0.00
2023-04-06T03:25:04.855Z,-0.06
2023-04-06T03:26:04.856Z,0.00
2023-04-06T03:27:04.832Z,0.00
2023-04-06T03:28:04.819Z,0.00
2023-04-06T03:29:04.816Z,-0.06
2023-04-06T03:30:04.810Z,-0.06
2023-04-06T03:31:04.858Z,-0.06
2023-04-06T03:32:04.868Z,0.00
2023-04-06T03:33:04.822Z,-0.06
2023-04-06T03:34:04.804Z,-0.12
2023-04-06T03:35:04.878Z,-0.12
2023-04-06T03:36:04.847Z,-0.12
2023-04-06T03:37:10.099Z,-0.12
2023-04-06T03:38:04.800Z,-0.12
2023-04-06T03:39:04.823Z,-0.12
2023-04-06T03:40:04.835Z,-0.12
2023-04-06T03:41:04.835Z,-0.12
2023-04-06T03:42:04.841Z,-0.12
2023-04-06T03:43:04.820Z,-0.19
2023-04-06T03:44:04.828Z,-0.25
2023-04-06T03:45:04.842Z,-0.25
2023-04-06T03:46:04.840Z,-0.25
2023-04-06T03:47:04.816Z,-0.25
2023-04-06T03:48:04.867Z,-0.25
2023-04-06T03:49:04.819Z,-0.25
2023-04-06T03:50:04.910Z,-0.31
2023-04-06T03:51:04.827Z,-0.25
2023-04-06T03:52:04.833Z,-0.25
2023-04-06T03:53:04.837Z,-0.31
2023-04-06T03:54:04.828Z,-0.31
2023-04-06T03:55:05.010Z,-0.31
2023-04-06T03:56:05.114Z,-0.31
2023-04-06T03:57:04.842Z,-0.38
2023-04-06T03:58:04.849Z,-0.38
2023-04-06T03:59:04.891Z,-0.38
2023-04-06T04:00:04.847Z,-0.38
2023-04-06T04:01:04.831Z,-0.44
2023-04-06T04:02:04.869Z,-0.44
2023-04-06T04:03:04.892Z,-0.44
2023-04-06T04:04:04.865Z,-0.44
2023-04-06T04:05:04.929Z,-0.44
2023-04-06T04:06:04.838Z,-0.44
2023-04-06T04:07:04.835Z,-0.50
2023-04-06T04:08:04.855Z,-0.50
2023-04-06T04:09:04.864Z,-0.50
2023-04-06T04:10:04.847Z,-0.50
2023-04-06T04:11:04.879Z,-0.50
2023-04-06T04:12:04.835Z,-0.50
2023-04-06T04:13:04.852Z,-0.50
2023-04-06T04:14:04.852Z,-0.50
2023-04-06T04:15:04.852Z,-0.44
2023-04-06T04:16:04.892Z,-0.50
2023-04-06T04:17:04.878Z,-0.50
2023-04-06T04:18:04.883Z,-0.56
2023-04-06T04:19:04.870Z,-0.56
2023-04-06T04:20:04.874Z,-0.56
2023-04-06T04:21:04.851Z,-0.56
2023-04-06T04:22:04.846Z,-0.56
2023-04-06T04:23:04.884Z,-0.50
2023-04-06T04:24:04.849Z,-0.56
2023-04-06T04:25:04.856Z,-0.56
2023-04-06T04:26:04.864Z,-0.56
2023-04-06T04:27:04.860Z,-0.62
2023-04-06T04:28:04.888Z,-0.56
2023-04-06T04:29:04.868Z,-0.62
2023-04-06T04:30:04.876Z,-0.62
2023-04-06T04:31:04.905Z,-0.62
2023-04-06T04:32:04.877Z,-0.62
2023-04-06T04:33:04.911Z,-0.31
2023-04-06T04:34:04.844Z,0.19
2023-04-06T04:35:04.878Z,0.50
2023-04-06T04:36:04.915Z,0.69
2023-04-06T04:37:04.852Z,0.69
2023-04-06T04:38:04.897Z,0.56
2023-04-06T04:39:04.861Z,0.44
2023-04-06T04:40:04.930Z,0.31
2023-04-06T04:41:04.884Z,0.19
2023-04-06T04:42:04.879Z,0.06
2023-04-06T04:43:04.888Z,0.00
2023-04-06T04:44:04.904Z,0.00
2023-04-06T04:45:04.897Z,0.31
2023-04-06T04:46:04.888Z,0.31
2023-04-06T04:47:04.878Z,0.25
2023-04-06T04:48:04.901Z,0.12
2023-04-06T04:49:04.877Z,0.06
2023-04-06T04:50:04.888Z,0.00
2023-04-06T04:51:04.859Z,-0.06
2023-04-06T04:52:04.890Z,-0.06
2023-04-06T04:53:04.897Z,0.06
2023-04-06T04:54:04.878Z,0.06
2023-04-06T04:55:04.877Z,0.12
2023-04-06T04:56:04.919Z,0.25
2023-04-06T04:57:04.892Z,0.38
2023-04-06T04:58:04.873Z,0.38
2023-04-06T04:59:04.924Z,0.38
2023-04-06T05:00:09.427Z,0.38
2023-04-06T05:01:04.873Z,0.25
2023-04-06T05:04:04.892Z,0.12
2023-04-06T05:05:04.895Z,0.06
2023-04-06T05:06:04.911Z,0.00
2023-04-06T05:07:04.920Z,0.00
2023-04-06T05:08:04.927Z,0.00
2023-04-06T05:09:04.886Z,0.06
2023-04-06T05:11:04.921Z,0.50
2023-04-06T05:12:04.901Z,0.56
2023-04-06T05:13:04.902Z,0.81
2023-04-06T05:14:04.930Z,1.12
2023-04-06T05:18:04.932Z,1.75
2023-04-06T05:19:04.948Z,1.88
2023-04-06T05:20:04.944Z,2.25
2023-04-06T05:21:04.947Z,2.62
2023-04-06T05:22:13.825Z,2.88
2023-04-06T05:25:05.175Z,3.44
2023-04-06T05:26:04.952Z,4.06
2023-04-06T05:27:04.959Z,4.31
2023-04-06T05:28:04.981Z,4.44
2023-04-06T05:29:04.941Z,4.75
2023-04-06T05:30:04.972Z,5.06
2023-04-06T05:31:05.060Z,5.62
2023-04-06T05:32:04.944Z,6.25
2023-04-06T05:33:04.996Z,6.81
2023-04-06T05:34:04.963Z,7.25
2023-04-06T05:35:04.962Z,7.50
2023-04-06T05:36:05.004Z,8.12
2023-04-06T05:37:04.963Z,8.81
2023-04-06T05:38:04.951Z,8.75
2023-04-06T05:39:04.973Z,9.00
2023-04-06T05:40:04.970Z,9.25
2023-04-06T05:41:04.962Z,9.31
2023-04-06T05:42:04.958Z,9.44
2023-04-06T05:43:05.002Z,9.69
2023-04-06T05:44:04.980Z,10.31
2023-04-06T05:45:04.983Z,10.06
2023-04-06T05:46:05.002Z,10.56
2023-04-06T05:47:04.977Z,11.12
2023-04-06T05:48:04.965Z,11.56
2023-04-06T05:49:06.952Z,11.75
2023-04-06T05:50:05.005Z,12.25
2023-04-06T05:51:04.976Z,12.00
2023-04-06T05:52:05.007Z,11.38
2023-04-06T05:53:04.943Z,11.81
2023-04-06T05:54:04.954Z,12.44
2023-04-06T05:55:04.968Z,13.19
2023-04-06T05:56:04.961Z,13.31
2023-04-06T05:57:04.977Z,13.69
2023-04-06T05:58:05.029Z,14.06
2023-04-06T05:59:05.042Z,14.06
2023-04-06T06:00:05.029Z,14.25
2023-04-06T06:01:04.981Z,14.56
2023-04-06T06:02:05.009Z,14.75
2023-04-06T06:03:04.980Z,14.88
2023-04-06T06:04:04.972Z,15.06
2023-04-06T06:05:05.006Z,15.19
2023-04-06T06:06:05.450Z,15.31
2023-04-06T06:07:05.049Z,15.38
2023-04-06T06:08:05.011Z,15.38
2023-04-06T06:09:05.009Z,15.19
2023-04-06T06:10:05.009Z,15.12
2023-04-06T06:11:05.031Z,14.88
2023-04-06T06:12:04.981Z,14.62
2023-04-06T06:13:04.982Z,14.56
2023-04-06T06:14:05.006Z,14.38
2023-04-06T06:15:05.153Z,13.94
2023-04-06T06:16:05.006Z,13.69
2023-04-06T06:17:04.971Z,13.56
2023-04-06T06:18:05.015Z,13.56
2023-04-06T06:19:05.026Z,13.50
2023-04-06T06:20:04.979Z,13.44
2023-04-06T06:21:04.989Z,13.31
2023-04-06T06:22:05.006Z,13.50
2023-04-06T06:23:04.975Z,13.56
2023-04-06T06:24:05.025Z,13.56
2023-04-06T06:25:05.008Z,13.75
2023-04-06T06:26:05.026Z,13.75
2023-04-06T06:27:04.975Z,13.81
2023-04-06T06:28:05.027Z,13.94
2023-04-06T06:29:04.999Z,14.00
2023-04-06T06:30:05.025Z,14.06
2023-04-06T06:31:05.027Z,14.19
2023-04-06T06:32:05.114Z,14.25
2023-04-06T06:33:05.071Z,14.31
2023-04-06T06:34:05.037Z,14.38
2023-04-06T06:35:05.073Z,14.31
2023-04-06T06:36:05.166Z,14.38
2023-04-06T06:37:05.024Z,14.50
2023-04-06T06:38:05.001Z,14.44
2023-04-06T06:39:05.020Z,14.50
2023-04-06T06:40:05.074Z,14.56
2023-04-06T06:41:04.990Z,14.69
2023-04-06T06:42:05.012Z,14.62
2023-04-06T06:43:05.017Z,14.75
2023-04-06T06:44:05.018Z,14.88
2023-04-06T06:45:05.033Z,15.00
2023-04-06T06:46:05.100Z,15.06
2023-04-06T06:47:04.988Z,15.12
2023-04-06T06:48:05.036Z,15.19
2023-04-06T06:49:05.016Z,15.19
2023-04-06T06:50:04.990Z,15.25
2023-04-06T06:51:05.048Z,15.44
2023-04-06T06:52:05.035Z,15.50
2023-04-06T06:53:05.010Z,15.56
2023-04-06T06:54:05.034Z,15.62
2023-04-06T06:55:05.026Z,15.75
2023-04-06T06:56:05.015Z,15.81
2023-04-06T06:57:05.096Z,15.88
2023-04-06T06:58:05.025Z,15.88
2023-04-06T06:59:05.046Z,15.88
2023-04-06T07:00:05.139Z,15.94
2023-04-06T07:01:05.049Z,16.06
2023-04-06T07:02:05.057Z,16.12
2023-04-06T07:03:05.113Z,16.12
2023-04-06T07:04:05.085Z,16.25
2023-04-06T07:05:13.194Z,16.38
2023-04-06T07:06:05.018Z,16.38
2023-04-06T07:07:05.027Z,16.44
2023-04-06T07:08:05.050Z,16.50
2023-04-06T07:09:05.038Z,16.62
2023-04-06T07:10:05.040Z,16.88
2023-04-06T07:11:05.023Z,17.12
2023-04-06T07:12:05.074Z,17.38
2023-04-06T07:13:05.095Z,17.56
2023-04-06T07:14:05.075Z,17.44
2023-04-06T07:15:05.113Z,17.44
2023-04-06T07:16:05.101Z,17.38
2023-04-06T07:17:05.063Z,17.44
2023-04-06T07:18:05.074Z,17.56
2023-04-06T07:19:05.111Z,17.62
2023-04-06T07:20:05.051Z,17.62
2023-04-06T07:21:05.078Z,17.62
2023-04-06T07:22:05.100Z,17.62
2023-04-06T07:23:05.069Z,17.62
2023-04-06T07:24:05.040Z,17.69
2023-04-06T07:25:05.071Z,17.69
2023-04-06T07:26:05.087Z,17.75
2023-04-06T07:27:05.070Z,17.69
2023-04-06T07:28:05.101Z,17.69
2023-04-06T07:29:05.184Z,17.69
2023-04-06T07:30:05.075Z,17.75
2023-04-06T07:31:05.125Z,17.81
2023-04-06T07:32:05.078Z,17.88
2023-04-06T07:33:05.089Z,17.88
2023-04-06T07:34:05.100Z,17.94
2023-04-06T07:35:05.089Z,17.94
2023-04-06T07:36:05.115Z,17.94
2023-04-06T07:37:05.078Z,17.94
2023-04-06T07:38:05.081Z,18.00
2023-04-06T07:39:05.086Z,18.00
2023-04-06T07:40:05.105Z,18.00
2023-04-06T07:41:05.080Z,18.06
2023-04-06T07:42:05.104Z,18.12
2023-04-06T07:43:05.095Z,18.19
2023-04-06T07:44:05.099Z,18.19
2023-04-06T07:45:05.089Z,18.25
2023-04-06T07:46:05.105Z,18.25
2023-04-06T07:47:05.106Z,18.25
2023-04-06T07:48:05.125Z,18.31
2023-04-06T07:49:05.076Z,18.25
2023-04-06T07:50:05.078Z,18.25
2023-04-06T07:51:05.061Z,18.25
2023-04-06T07:52:05.078Z,18.25
2023-04-06T07:53:05.067Z,18.31
2023-04-06T07:54:05.128Z,18.38
2023-04-06T07:55:05.091Z,18.38
2023-04-06T07:56:05.068Z,18.38
2023-04-06T07:57:05.074Z,18.44
2023-04-06T07:58:05.110Z,18.44
2023-04-06T07:59:05.110Z,18.50
2023-04-06T08:00:05.077Z,18.75
2023-04-06T08:01:05.088Z,18.94
2023-04-06T08:02:05.141Z,19.12
2023-04-06T08:03:05.200Z,19.25
2023-04-06T08:04:05.165Z,19.31
2023-04-06T08:05:05.057Z,19.44
2023-04-06T08:06:05.076Z,19.62
2023-04-06T08:07:05.131Z,19.75
2023-04-06T08:08:05.109Z,19.88
2023-04-06T08:09:05.116Z,19.75
2023-04-06T08:10:05.098Z,19.56
2023-04-06T08:11:05.099Z,19.56
2023-04-06T08:12:05.092Z,19.69
2023-04-06T08:13:05.093Z,19.75
2023-04-06T08:14:05.117Z,19.75
2023-04-06T08:15:05.108Z,19.56
2023-04-06T08:16:05.133Z,19.44
2023-04-06T08:17:06.418Z,19.25
2023-04-06T08:18:05.116Z,19.06
2023-04-06T08:19:05.151Z,18.94
2023-04-06T08:20:05.089Z,18.88
2023-04-06T08:21:04.959Z,18.75
2023-04-06T08:22:05.112Z,18.69
2023-04-06T08:23:05.105Z,18.56
2023-04-06T08:24:05.258Z,18.44
2023-04-06T08:25:05.127Z,18.31
2023-04-06T08:26:05.083Z,18.19
2023-04-06T08:27:05.088Z,18.06
2023-04-06T08:28:05.116Z,18.12
2023-04-06T08:29:05.110Z,18.06
2023-04-06T08:30:05.126Z,17.94
2023-04-06T08:31:05.154Z,17.88
2023-04-06T08:32:05.104Z,17.81
2023-04-06T08:33:05.126Z,17.75
2023-04-06T08:34:05.132Z,17.62
2023-04-06T08:35:05.164Z,17.62
2023-04-06T08:36:05.125Z,17.56
2023-04-06T08:37:05.120Z,17.44
2023-04-06T08:38:05.119Z,17.31
2023-04-06T08:39:05.123Z,17.25
2023-04-06T08:40:05.179Z,17.19
2023-04-06T08:41:07.017Z,17.19
2023-04-06T08:42:05.138Z,17.19
2023-04-06T08:43:05.160Z,17.06
2023-04-06T08:44:05.146Z,17.00
2023-04-06T08:45:05.128Z,16.94
2023-04-06T08:46:05.001Z,16.94
2023-04-06T08:47:05.100Z,16.94
2023-04-06T08:48:05.018Z,16.88
2023-04-06T08:49:05.161Z,16.81
2023-04-06T08:50:05.143Z,16.62
2023-04-06T08:51:05.111Z,16.50
2023-04-06T08:52:05.121Z,16.44
2023-04-06T08:53:05.114Z,16.38
2023-04-06T08:54:05.137Z,16.31
2023-04-06T08:55:05.151Z,16.25
2023-04-06T08:56:05.142Z,16.25
2023-04-06T08:57:05.173Z,16.19
2023-04-06T08:58:05.149Z,16.19
2023-04-06T08:59:05.154Z,16.00
2023-04-06T09:00:05.175Z,15.88
2023-04-06T09:01:05.172Z,15.81
2023-04-06T09:02:05.200Z,15.75
2023-04-06T09:03:05.251Z,15.69
2023-04-06T09:04:06.624Z,15.62
2023-04-06T09:05:05.217Z,15.56
2023-04-06T09:06:04.908Z,15.50
2023-04-06T09:07:05.186Z,15.44
2023-04-06T09:08:05.007Z,15.38
2023-04-06T09:09:05.033Z,15.25
2023-04-06T09:10:05.165Z,15.19
2023-04-06T09:11:05.149Z,15.06
2023-04-06T09:12:05.146Z,14.94
2023-04-06T09:13:05.185Z,14.94
2023-04-06T09:14:05.181Z,14.88
2023-04-06T09:15:05.152Z,14.88
2023-04-06T09:16:05.197Z,15.00
2023-04-06T09:17:05.157Z,15.06
2023-04-06T09:18:05.045Z,15.00
2023-04-06T09:19:05.160Z,14.94
2023-04-06T09:20:05.137Z,14.81
2023-04-06T09:21:05.193Z,14.69
2023-04-06T09:22:05.209Z,14.62
2023-04-06T09:23:05.192Z,14.62
2023-04-06T09:24:05.225Z,14.62
2023-04-06T09:25:05.180Z,14.56
2023-04-06T09:26:05.219Z,14.50
2023-04-06T09:27:05.169Z,14.38
2023-04-06T09:28:05.216Z,14.38
2023-04-06T09:29:05.187Z,14.38
2023-04-06T09:30:05.261Z,14.38
2023-04-06T09:31:05.035Z,14.38
2023-04-06T09:32:05.033Z,14.38
2023-04-06T09:33:05.126Z,14.31
2023-04-06T09:34:05.181Z,14.25
2023-04-06T09:35:05.197Z,14.19
2023-04-06T09:36:05.210Z,14.12
2023-04-06T09:37:05.210Z,14.06
2023-04-06T09:38:05.195Z,14.00
2023-04-06T09:39:05.238Z,14.00
2023-04-06T09:40:05.233Z,14.00
2023-04-06T09:41:05.209Z,14.00
2023-04-06T09:42:05.044Z,13.88
2023-04-06T09:43:05.057Z,13.88
2023-04-06T09:44:05.193Z,13.88
2023-04-06T09:45:05.168Z,13.81
2023-04-06T09:46:05.203Z,13.75
2023-04-06T09:47:05.200Z,13.75
2023-04-06T09:48:05.202Z,13.69
2023-04-06T09:49:05.348Z,13.69
2023-04-06T09:50:05.182Z,13.62
2023-04-06T09:51:05.207Z,13.62
2023-04-06T09:52:05.199Z,13.56
2023-04-06T09:53:05.193Z,13.56
2023-04-06T09:54:05.205Z,13.56
2023-04-06T09:55:05.202Z,13.56
2023-04-06T09:56:05.181Z,13.56
2023-04-06T09:57:05.167Z,13.50
2023-04-06T09:58:05.238Z,13.50
2023-04-06T09:59:05.254Z,13.50
2023-04-06T10:00:05.230Z,13.50
2023-04-06T10:01:05.250Z,13.50
2023-04-06T10:02:05.201Z,13.44
2023-04-06T10:03:07.002Z,13.44
2023-04-06T10:04:05.351Z,13.44
2023-04-06T10:05:05.214Z,13.38
2023-04-06T10:06:05.205Z,13.25
2023-04-06T10:07:05.242Z,13.12
2023-04-06T10:08:04.963Z,13.06
2023-04-06T10:09:05.002Z,13.06
2023-04-06T10:10:05.062Z,13.06
2023-04-06T10:11:03.429Z,13.06
2023-04-06T10:12:05.068Z,13.06
2023-04-06T10:13:05.061Z,13.06
2023-04-06T10:14:05.226Z,13.06
2023-04-06T10:15:05.194Z,13.06
2023-04-06T10:16:05.201Z,13.06
2023-04-06T10:17:05.190Z,13.06
2023-04-06T10:18:05.222Z,13.00
2023-04-06T10:19:05.212Z,13.06
2023-04-06T10:20:05.188Z,13.06
2023-04-06T10:21:05.221Z,13.06
2023-04-06T10:22:05.223Z,13.06
2023-04-06T10:23:05.240Z,13.06
2023-04-06T10:24:05.230Z,13.06
2023-04-06T10:25:05.261Z,13.12
2023-04-06T10:26:05.227Z,13.06
2023-04-06T10:27:05.231Z,13.06
2023-04-06T10:28:05.243Z,13.06
2023-04-06T10:29:05.518Z,13.06
2023-04-06T10:30:05.231Z,13.06
2023-04-06T10:31:05.239Z,13.06
2023-04-06T10:32:05.269Z,13.12
2023-04-06T10:33:05.273Z,13.12
2023-04-06T10:34:05.275Z,13.12
2023-04-06T10:35:05.258Z,13.19
2023-04-06T10:36:05.261Z,13.12
2023-04-06T10:37:05.256Z,13.06
2023-04-06T10:38:05.102Z,13.06
2023-04-06T10:39:05.230Z,13.00
2023-04-06T10:40:05.254Z,12.88
2023-04-06T10:41:05.292Z,12.81
2023-04-06T10:42:05.088Z,12.75
2023-04-06T10:43:05.254Z,12.75
2023-04-06T10:44:05.258Z,12.75
2023-04-06T10:45:05.254Z,12.81
2023-04-06T10:46:05.305Z,12.88
2023-04-06T10:47:05.233Z,12.88
2023-04-06T10:48:05.286Z,12.88
2023-04-06T10:49:05.265Z,12.94
2023-04-06T10:50:05.237Z,12.94
2023-04-06T10:51:05.287Z,13.00
2023-04-06T10:52:05.258Z,12.94
2023-04-06T10:53:05.262Z,13.00
2023-04-06T10:54:05.271Z,13.00
2023-04-06T10:55:05.275Z,12.94
2023-04-06T10:56:05.267Z,12.88
2023-04-06T10:57:05.273Z,12.88
2023-04-06T10:58:03.547Z,12.88
2023-04-06T10:59:05.180Z,12.88
2023-04-06T11:00:05.079Z,12.94
2023-04-06T11:01:05.169Z,12.94
2023-04-06T11:02:05.104Z,12.94
2023-04-06T11:03:05.259Z,12.94
2023-04-06T11:04:05.325Z,13.00
2023-04-06T11:05:05.244Z,13.00
2023-04-06T11:06:05.233Z,13.00
2023-04-06T11:07:05.273Z,13.31
2023-04-06T11:08:05.265Z,13.69
2023-04-06T11:09:05.238Z,14.19
2023-04-06T11:10:15.398Z,14.44
2023-04-06T11:11:05.237Z,14.81
2023-04-06T11:12:05.245Z,15.00
2023-04-06T11:13:05.277Z,15.06
2023-04-06T11:14:05.245Z,15.19
2023-04-06T11:15:05.253Z,15.31
2023-04-06T11:16:05.263Z,15.38
2023-04-06T11:17:05.279Z,15.44
2023-04-06T11:18:05.370Z,15.44
2023-04-06T11:19:05.271Z,15.56
2023-04-06T11:20:05.271Z,15.56
2023-04-06T11:21:05.244Z,15.56
2023-04-06T11:22:05.266Z,15.56
2023-04-06T11:23:03.500Z,15.56
2023-04-06T11:24:05.074Z,15.50
2023-04-06T11:25:05.078Z,15.62
2023-04-06T11:26:05.138Z,15.62
2023-04-06T11:27:05.273Z,15.56
2023-04-06T11:28:05.281Z,15.56
2023-04-06T11:29:05.262Z,15.62
2023-04-06T11:30:05.299Z,15.56
2023-04-06T11:31:05.330Z,15.44
2023-04-06T11:32:05.337Z,15.38
2023-04-06T11:33:05.337Z,15.44
2023-04-06T11:34:05.277Z,15.44
2023-04-06T11:35:03.520Z,15.50
2023-04-06T11:36:03.517Z,15.38
2023-04-06T11:37:05.159Z,15.38
2023-04-06T11:38:05.084Z,15.12
2023-04-06T11:39:05.165Z,15.00
2023-04-06T11:40:05.315Z,14.88
2023-04-06T11:41:05.296Z,14.88
2023-04-06T11:42:07.736Z,14.81
2023-04-06T11:43:05.306Z,14.75
2023-04-06T11:44:05.295Z,14.69
2023-04-06T11:45:05.381Z,14.62
2023-04-06T11:46:05.350Z,14.44
2023-04-06T11:47:05.305Z,14.25
2023-04-06T11:48:05.353Z,14.19
2023-04-06T11:49:05.375Z,14.12
2023-04-06T11:50:05.347Z,14.06
2023-04-06T11:51:05.307Z,14.00
2023-04-06T11:52:05.362Z,13.94
2023-04-06T11:53:05.347Z,13.81
2023-04-06T11:54:05.309Z,13.81
2023-04-06T11:55:05.321Z,13.81
2023-04-06T11:56:05.319Z,13.75
2023-04-06T11:57:05.089Z,13.69
2023-04-06T11:58:05.088Z,13.69
2023-04-06T11:59:03.619Z,13.75
2023-04-06T12:00:05.152Z,13.75
2023-04-06T12:01:05.209Z,13.75
2023-04-06T12:02:05.320Z,13.75
2023-04-06T12:03:05.355Z,13.75
2023-04-06T12:04:05.398Z,13.81
2023-04-06T12:05:05.315Z,13.81
2023-04-06T12:06:05.354Z,13.81
2023-04-06T12:07:05.366Z,13.81
2023-04-06T12:08:05.334Z,13.81
2023-04-06T12:09:05.321Z,13.81
2023-04-06T12:10:05.358Z,13.81
2023-04-06T12:11:05.372Z,13.81
2023-04-06T12:12:05.351Z,13.81
2023-04-06T12:13:05.618Z,13.81
2023-04-06T12:14:05.326Z,13.81
2023-04-06T12:15:03.589Z,13.81
2023-04-06T12:16:05.240Z,13.81
2023-04-06T12:17:05.167Z,13.81
2023-04-06T12:18:05.351Z,13.81
2023-04-06T12:19:05.388Z,13.81
2023-04-06T12:20:13.837Z,13.81
2023-04-06T12:21:05.363Z,13.81
2023-04-06T12:22:05.390Z,13.81
2023-04-06T12:23:05.372Z,13.88
2023-04-06T12:24:05.382Z,13.88
2023-04-06T12:25:03.518Z,13.88
2023-04-06T12:26:05.148Z,13.88
2023-04-06T12:27:09.801Z,13.88
2023-04-06T12:28:05.243Z,13.94
2023-04-06T12:29:05.223Z,13.94
2023-04-06T12:30:05.220Z,13.94
2023-04-06T12:31:05.397Z,13.94
2023-04-06T12:32:05.347Z,13.94
2023-04-06T12:33:05.462Z,13.94
2023-04-06T12:34:05.434Z,13.94
2023-04-06T12:35:05.341Z,13.94
2023-04-06T12:36:05.350Z,14.00
2023-04-06T12:37:05.357Z,14.00
2023-04-06T12:38:05.382Z,14.00
2023-04-06T12:39:05.364Z,14.00
2023-04-06T12:40:05.364Z,14.00
2023-04-06T12:41:05.374Z,14.06
2023-04-06T12:42:05.378Z,14.06
2023-04-06T12:43:05.382Z,14.06
2023-04-06T12:44:05.370Z,14.06
2023-04-06T12:45:05.403Z,14.06
2023-04-06T12:46:03.612Z,14.12
2023-04-06T12:47:05.153Z,14.06
2023-04-06T12:48:05.236Z,14.06
2023-04-06T12:49:05.378Z,14.06
2023-04-06T12:50:05.391Z,14.06
2023-04-06T12:51:05.388Z,14.06
2023-04-06T12:52:05.259Z,14.12
2023-04-06T12:53:05.347Z,14.12
2023-04-06T12:54:03.604Z,14.12
2023-04-06T12:55:05.238Z,14.06
2023-04-06T12:56:05.230Z,14.06
2023-04-06T12:57:05.365Z,14.06
2023-04-06T12:58:05.375Z,14.00
2023-04-06T12:59:05.418Z,14.00
2023-04-06T13:00:06.536Z,14.00
2023-04-06T13:01:05.431Z,14.00
2023-04-06T13:02:05.398Z,13.94
2023-04-06T13:03:05.427Z,13.94
2023-04-06T13:04:05.397Z,13.94
2023-04-06T13:05:05.405Z,13.88
2023-04-06T13:06:05.393Z,13.88
2023-04-06T13:07:05.398Z,13.81
2023-04-06T13:08:03.514Z,13.81
2023-04-06T13:09:03.593Z,13.75